Alverda, Pennsylvania
Current Conditions -  °F | °C
As of 9:15 AM on Friday 24 Oct 2014 (Local Time) from KIDI Reporting Station
Overcast Overcast  
Wind Chill: 43°   Ceiling: 1000
Heat Index: 46°   Visibility: 8mi
Dew Point: 43°   Wind: 7mph
Humidity: 87%   Direction: 290°WNW
Pressure: 30.12"   Gusts: NA
Location:  40.63°N, 78.86°W
Report Text: KIDI 241315Z AUTO 29006KT 8SM BKN010 OVC013 08/06 A3012 RMK A01
Loading
Personal Weather Stations






























Interactive Weather Map
Tropical Storm Tracking
New forecast layout! Learn more

10-Day Weather Forecast

Advertisements
Track Severe Weather on mobile